Time;durP1;ratioP1;P1;durP2;ratioP2;P2;SDS_P1;SDS_P2;PMS_P1;PMS_P2;Temp;Humidity;BMP_temperature;BMP_pressure;BME280_temperature;BME280_humidity;BME280_pressure;Samples;Min_cycle;Max_cycle;Signal;HPM_P1;HPM_P2
2022/01/26 00:00:43;;;;;;;60.95;51.53;;;1.10;95.10;;;;;;5089567;27;20562;-71
2022/01/26 00:06:01;;;;;;;58.08;51.60;;;0.90;95.50;;;;;;5090071;28;20272;-71
2022/01/26 00:08:28;;;;;;;60.03;52.50;;;0.70;96.40;;;;;;5089916;28;20641;-71
2022/01/26 00:10:55;;;;;;;63.28;52.70;;;0.60;96.90;;;;;;5089643;28;20214;-71
2022/01/26 00:13:22;;;;;;;70.10;51.20;;;0.50;97.70;;;;;;5089795;28;20678;-71
2022/01/26 00:15:50;;;;;;;66.55;51.45;;;0.60;97.90;;;;;;5089699;28;20286;-71
2022/01/26 00:18:21;;;;;;;66.50;52.97;;;0.70;97.70;;;;;;5089570;28;20195;-71
2022/01/26 00:20:53;;;;;;;74.80;54.25;;;0.70;97.70;;;;;;5089437;28;20289;-71
2022/01/26 00:23:46;;;;;;;66.38;53.17;;;0.80;97.80;;;;;;5089615;28;20700;-71
2022/01/26 00:26:17;;;;;;;68.57;56.22;;;0.90;97.60;;;;;;5089414;28;20231;-71
2022/01/26 00:28:59;;;;;;;66.10;52.70;;;0.90;97.80;;;;;;5089559;28;20192;-71
2022/01/26 00:39:40;;;;;;;130.13;58.08;;;1.00;97.80;;;;;;5089294;28;20634;-71
2022/01/26 00:42:07;;;;;;;79.63;55.08;;;1.10;97.30;;;;;;5089294;28;20199;-72
2022/01/26 00:44:40;;;;;;;69.90;53.22;;;1.10;97.10;;;;;;5089113;28;20687;-72
2022/01/26 00:47:09;;;;;;;67.43;53.63;;;0.90;97.40;;;;;;5089203;28;20202;-71
2022/01/26 00:49:35;;;;;;;68.97;54.20;;;1.10;98.60;;;;;;5088934;28;20745;-71
2022/01/26 00:52:06;;;;;;;91.75;57.75;;;1.10;97.40;;;;;;5089116;28;20234;-71
2022/01/26 00:54:33;;;;;;;66.90;54.05;;;1.00;97.40;;;;;;5089054;28;20282;-71
2022/01/26 00:57:00;;;;;;;73.95;53.95;;;1.00;97.50;;;;;;5089058;28;20195;-71
2022/01/26 00:59:27;;;;;;;83.93;58.67;;;1.00;97.80;;;;;;5088572;28;20219;-71
2022/01/26 01:01:55;;;;;;;74.63;53.72;;;0.90;97.60;;;;;;5088901;28;20227;-71
2022/01/26 01:04:24;;;;;;;77.63;54.67;;;0.90;97.80;;;;;;5088690;28;20199;-71
2022/01/26 01:06:56;;;;;;;81.28;55.88;;;0.90;98.20;;;;;;5088871;28;20215;-71
2022/01/26 01:09:24;;;;;;;74.57;54.65;;;1.00;98.10;;;;;;5088495;28;20227;-71
2022/01/26 01:11:56;;;;;;;79.22;55.72;;;0.90;97.80;;;;;;5075141;28;20723;-71
2022/01/26 01:14:23;;;;;;;96.07;59.35;;;0.90;98.00;;;;;;5075305;28;20196;-71
2022/01/26 01:16:52;;;;;;;94.00;57.15;;;0.80;97.80;;;;;;5075196;28;20204;-71
2022/01/26 01:19:31;;;;;;;88.13;57.10;;;0.80;98.50;;;;;;5074691;28;20271;-71
2022/01/26 01:25:11;;;;;;;106.05;59.00;;;0.80;98.30;;;;;;5074713;28;20203;-71
2022/01/26 01:30:30;;;;;;;84.40;56.70;;;0.60;98.50;;;;;;5070775;28;20210;-71
2022/01/26 01:33:06;;;;;;;89.97;57.88;;;0.70;99.00;;;;;;5074973;28;20200;-72
2022/01/26 01:35:36;;;;;;;96.43;55.63;;;0.70;99.00;;;;;;5074884;28;20653;-71
2022/01/26 01:38:16;;;;;;;89.50;57.35;;;0.60;98.90;;;;;;5074803;28;20207;-72
2022/01/26 01:40:45;;;;;;;93.00;57.80;;;0.60;99.40;;;;;;5074390;28;20285;-72
2022/01/26 01:43:14;;;;;;;93.75;56.55;;;0.70;99.40;;;;;;5074765;28;20200;-71
2022/01/26 01:45:43;;;;;;;87.40;56.65;;;0.60;98.90;;;;;;5074763;28;20202;-71
2022/01/26 01:48:13;;;;;;;83.78;55.03;;;0.70;99.00;;;;;;5074505;28;20203;-72
2022/01/26 01:50:41;;;;;;;98.75;59.25;;;0.50;98.70;;;;;;5074449;28;20212;-71
2022/01/26 01:53:10;;;;;;;88.85;58.00;;;0.40;99.30;;;;;;5074380;28;20241;-71
2022/01/26 01:55:40;;;;;;;84.97;54.80;;;0.50;98.90;;;;;;5074373;28;20227;-72
2022/01/26 01:58:07;;;;;;;102.65;60.60;;;0.40;98.80;;;;;;5074201;28;20198;-71
2022/01/26 02:00:34;;;;;;;90.35;54.75;;;0.20;99.60;;;;;;5074018;28;20231;-71
2022/01/26 02:03:01;;;;;;;83.40;54.70;;;0.30;99.50;;;;;;5074253;28;20292;-71
2022/01/26 02:05:28;;;;;;;87.60;54.13;;;0.30;99.20;;;;;;5073885;28;20200;-71
2022/01/26 02:07:55;;;;;;;91.00;54.08;;;0.30;99.40;;;;;;5074107;28;20238;-72
2022/01/26 02:10:25;;;;;;;80.22;55.05;;;0.40;99.20;;;;;;5073762;28;20307;-71
2022/01/26 02:12:55;;;;;;;87.93;57.13;;;0.30;99.30;;;;;;5074144;28;20199;-71
2022/01/26 02:15:27;;;;;;;85.97;53.22;;;0.30;99.60;;;;;;5074100;28;20301;-71
2022/01/26 02:18:24;;;;;;;79.93;53.30;;;0.30;99.40;;;;;;5073938;28;20615;-71
2022/01/26 02:21:15;;;;;;;78.20;52.00;;;0.40;99.10;;;;;;5073657;28;20306;-71
2022/01/26 02:57:02;;;;;;;64.60;48.03;;;-0.20;99.70;;;;;;5022831;28;20193;-71
2022/01/26 02:59:54;;;;;;;74.00;50.35;;;-0.40;99.80;;;;;;5058194;28;20315;-71
2022/01/26 03:02:30;;;;;;;67.88;51.17;;;-0.50;99.90;;;;;;5073185;28;20199;-71
2022/01/26 03:05:00;;;;;;;71.30;50.17;;;-0.60;99.90;;;;;;5072948;28;20191;-71
2022/01/26 03:07:38;;;;;;;63.70;51.38;;;-0.60;99.90;;;;;;5072942;28;20200;-71
2022/01/26 03:10:15;;;;;;;66.65;50.20;;;-0.50;99.90;;;;;;5072614;28;20220;-71
2022/01/26 03:12:48;;;;;;;56.50;47.47;;;-0.30;99.90;;;;;;5073194;28;20206;-71
2022/01/26 03:15:20;;;;;;;68.38;49.13;;;-0.30;99.80;;;;;;5072993;28;20204;-71
2022/01/26 03:18:05;;;;;;;71.32;51.15;;;-0.30;99.90;;;;;;5072963;28;20283;-71
2022/01/26 03:20:34;;;;;;;56.42;47.92;;;-0.20;99.90;;;;;;5072503;28;20220;-71
2022/01/26 03:28:41;;;;;;;49.35;42.92;;;-0.20;98.90;;;;;;5073100;28;20211;-71
2022/01/26 03:32:00;;;;;;;46.50;41.72;;;-0.30;98.50;;;;;;5072568;28;20297;-71
2022/01/26 03:34:25;;;;;;;47.92;42.92;;;-0.40;98.30;;;;;;5072242;28;20661;-72
2022/01/26 03:36:56;;;;;;;50.95;40.40;;;-0.40;97.60;;;;;;5072753;28;20200;-71
2022/01/26 03:39:24;;;;;;;43.92;39.28;;;-0.30;97.10;;;;;;5072204;28;20223;-71
2022/01/26 03:41:57;;;;;;;46.47;41.47;;;-0.50;96.30;;;;;;5072601;28;20200;-71
2022/01/26 03:44:24;;;;;;;48.05;41.88;;;-0.50;96.70;;;;;;5072577;28;20231;-71
2022/01/26 03:46:51;;;;;;;45.95;39.70;;;-0.70;97.30;;;;;;5072458;28;20206;-71
2022/01/26 03:49:18;;;;;;;50.00;41.53;;;-0.70;97.50;;;;;;5072227;28;20206;-71
2022/01/26 03:51:45;;;;;;;55.55;44.80;;;-0.80;97.90;;;;;;5072456;28;20249;-71
2022/01/26 03:54:14;;;;;;;53.75;44.97;;;-0.70;98.20;;;;;;5072417;28;20195;-71
2022/01/26 03:56:41;;;;;;;50.10;42.47;;;-0.70;98.40;;;;;;5072489;28;20612;-71
2022/01/26 03:59:09;;;;;;;51.22;43.53;;;-0.60;98.20;;;;;;5072186;28;20204;-71
2022/01/26 04:01:38;;;;;;;57.35;44.33;;;-0.60;98.10;;;;;;5072456;28;20220;-71
2022/01/26 04:04:05;;;;;;;59.45;47.40;;;-0.50;98.30;;;;;;5072389;28;20199;-71
2022/01/26 04:06:33;;;;;;;51.67;42.80;;;-0.50;98.60;;;;;;5072003;28;20199;-71
2022/01/26 04:09:00;;;;;;;1990.75;458.73;;;-0.30;99.70;;;;;;5072299;28;20203;-71
2022/01/26 04:11:34;;;;;;;52.20;42.75;;;-0.30;99.60;;;;;;5071863;28;20216;-71
2022/01/26 04:14:06;;;;;;;60.13;45.40;;;-0.20;99.30;;;;;;5072263;28;20293;-71
2022/01/26 04:16:35;;;;;;;1999.90;795.20;;;0.00;98.70;;;;;;5072324;28;20295;-71
2022/01/26 04:19:02;;;;;;;1999.90;436.50;;;0.10;99.10;;;;;;5072260;28;20283;-71
2022/01/26 04:21:41;;;;;;;1999.90;665.97;;;0.20;99.90;;;;;;5071832;28;20302;-71
2022/01/26 04:24:17;;;;;;;56.83;43.53;;;0.20;99.90;;;;;;5072232;28;20348;-71
2022/01/26 04:26:48;;;;;;;53.15;43.55;;;0.40;99.90;;;;;;5072198;28;20196;-72
2022/01/26 04:29:20;;;;;;;103.70;51.30;;;0.30;98.90;;;;;;5071833;28;20232;-72
2022/01/26 04:31:49;;;;;;;62.72;44.33;;;0.10;98.80;;;;;;5072080;28;20203;-72
2022/01/26 04:34:16;;;;;;;61.33;45.83;;;0.20;99.20;;;;;;5071988;28;20196;-71
2022/01/26 04:36:48;;;;;;;62.45;45.45;;;0.20;98.80;;;;;;5072063;28;20282;-72
2022/01/26 04:39:20;;;;;;;59.53;44.95;;;0.20;98.80;;;;;;5071766;28;20215;-71
2022/01/26 04:41:52;;;;;;;61.72;47.38;;;0.30;98.80;;;;;;5072102;28;20657;-71
2022/01/26 04:44:22;;;;;;;54.60;42.97;;;0.30;98.50;;;;;;5071919;28;20226;-71
2022/01/26 04:46:51;;;;;;;59.50;45.28;;;0.50;98.70;;;;;;5074917;28;20195;-72
2022/01/26 04:49:19;;;;;;;1816.25;292.35;;;0.50;98.80;;;;;;5075412;28;20231;-72
2022/01/26 04:51:46;;;;;;;1999.90;578.35;;;0.50;99.60;;;;;;5075717;28;20298;-72
2022/01/26 04:54:13;;;;;;;62.22;43.80;;;0.70;99.90;;;;;;5075615;28;20192;-72
2022/01/26 04:56:40;;;;;;;60.35;46.95;;;0.70;99.90;;;;;;5075482;28;20202;-71
2022/01/26 04:59:07;;;;;;;58.85;45.35;;;0.80;99.60;;;;;;5075383;28;20217;-72
2022/01/26 05:01:34;;;;;;;57.90;43.67;;;0.80;99.20;;;;;;5075429;28;20255;-71
2022/01/26 05:04:02;;;;;;;60.28;44.42;;;0.90;98.60;;;;;;5075359;28;20196;-72
2022/01/26 05:06:29;;;;;;;1999.90;575.53;;;0.90;99.90;;;;;;5075100;28;20204;-72
2022/01/26 05:08:56;;;;;;;109.78;48.55;;;0.90;99.70;;;;;;5075241;28;20203;-72
2022/01/26 05:11:31;;;;;;;314.80;70.00;;;0.90;99.20;;;;;;5074937;28;20212;-71
2022/01/26 05:13:59;;;;;;;92.25;48.03;;;0.90;99.10;;;;;;5075289;28;20299;-72
2022/01/26 05:16:26;;;;;;;301.70;67.88;;;0.90;99.70;;;;;;5075180;28;20569;-72
2022/01/26 05:18:54;;;;;;;57.17;44.70;;;0.90;99.90;;;;;;5075103;28;20196;-72
2022/01/26 05:21:23;;;;;;;1080.85;171.18;;;0.90;99.90;;;;;;5074857;28;20278;-72
2022/01/26 05:23:50;;;;;;;113.35;48.90;;;1.00;99.90;;;;;;5074957;28;20236;-72
2022/01/26 05:26:17;;;;;;;59.00;44.88;;;1.00;99.60;;;;;;5075118;28;20196;-72
2022/01/26 05:28:44;;;;;;;58.00;45.47;;;1.10;99.90;;;;;;5074948;28;20290;-72
2022/01/26 05:31:11;;;;;;;52.55;41.08;;;1.00;99.30;;;;;;5074790;28;20212;-72
2022/01/26 05:33:38;;;;;;;57.28;43.90;;;1.00;98.80;;;;;;5074956;28;20615;-72
2022/01/26 05:36:05;;;;;;;56.75;43.47;;;0.90;98.00;;;;;;5074794;28;20196;-71
2022/01/26 05:38:34;;;;;;;62.80;44.80;;;0.90;98.00;;;;;;5074821;28;20223;-72
2022/01/26 05:41:01;;;;;;;59.22;45.00;;;0.90;97.80;;;;;;5074463;28;20230;-72
2022/01/26 05:43:28;;;;;;;230.55;63.20;;;1.00;97.60;;;;;;5074802;28;20207;-71
2022/01/26 05:45:59;;;;;;;60.78;44.17;;;1.10;96.90;;;;;;5074662;28;20283;-72
2022/01/26 05:48:26;;;;;;;99.80;48.75;;;1.10;97.60;;;;;;5074537;28;20295;-72
2022/01/26 05:50:56;;;;;;;52.30;43.05;;;1.00;97.90;;;;;;5074331;28;20307;-72
2022/01/26 05:53:23;;;;;;;51.00;43.00;;;1.10;97.30;;;;;;5074618;28;20228;-72
2022/01/26 05:55:53;;;;;;;52.05;43.55;;;1.10;96.20;;;;;;5074499;28;20910;-72
2022/01/26 05:58:20;;;;;;;59.30;43.38;;;1.00;95.80;;;;;;5074241;28;20211;-72
2022/01/26 06:00:47;;;;;;;1403.60;260.88;;;0.90;96.00;;;;;;5074125;28;20230;-72
2022/01/26 06:03:14;;;;;;;57.92;45.40;;;1.00;96.10;;;;;;5074380;28;20204;-72
2022/01/26 06:05:41;;;;;;;57.42;44.53;;;1.00;97.80;;;;;;5074014;28;20203;-71
2022/01/26 06:08:08;;;;;;;56.70;42.97;;;1.00;96.30;;;;;;5074247;28;20287;-71
2022/01/26 06:10:35;;;;;;;1999.90;480.95;;;1.00;95.90;;;;;;5073739;28;20295;-71
2022/01/26 06:13:03;;;;;;;1999.90;842.97;;;1.00;95.60;;;;;;5074225;28;20196;-71
2022/01/26 06:15:30;;;;;;;62.67;45.97;;;1.00;98.20;;;;;;5073998;28;20208;-71
2022/01/26 06:17:57;;;;;;;1998.40;414.35;;;1.10;98.30;;;;;;5073902;28;20198;-71
2022/01/26 06:20:24;;;;;;;61.22;41.25;;;1.00;99.30;;;;;;5073678;28;20278;-71
2022/01/26 06:22:51;;;;;;;71.90;44.55;;;1.00;99.90;;;;;;5074038;28;20561;-72
2022/01/26 06:25:18;;;;;;;1925.43;396.38;;;1.00;99.90;;;;;;5073877;28;20235;-71
2022/01/26 06:27:45;;;;;;;52.75;43.88;;;1.10;99.90;;;;;;5073871;28;20192;-71
2022/01/26 06:30:14;;;;;;;54.97;43.65;;;1.10;99.00;;;;;;5073337;28;20216;-72
2022/01/26 06:32:41;;;;;;;63.75;43.05;;;1.10;97.60;;;;;;5073770;28;20227;-71
2022/01/26 06:35:09;;;;;;;54.00;42.78;;;1.00;97.00;;;;;;5073598;28;20633;-72
2022/01/26 06:37:36;;;;;;;600.88;105.68;;;1.10;96.80;;;;;;5073673;28;20219;-71
2022/01/26 06:40:04;;;;;;;1476.78;229.75;;;1.10;96.30;;;;;;5073347;28;20747;-72
2022/01/26 06:42:38;;;;;;;57.72;46.38;;;1.10;96.70;;;;;;5073486;28;20200;-71
2022/01/26 06:45:16;;;;;;;355.90;80.03;;;1.20;96.50;;;;;;5073443;28;20660;-71
2022/01/26 06:47:58;;;;;;;57.38;44.10;;;1.20;99.90;;;;;;5073485;28;20207;-71
2022/01/26 06:50:25;;;;;;;53.45;44.88;;;1.20;99.50;;;;;;5073207;28;20234;-71
2022/01/26 06:52:53;;;;;;;48.40;42.33;;;1.20;98.00;;;;;;5073306;28;20274;-71
2022/01/26 06:55:21;;;;;;;48.28;42.38;;;1.10;97.30;;;;;;5073319;28;20203;-71
2022/01/26 06:57:48;;;;;;;47.80;40.72;;;1.20;96.00;;;;;;5073225;28;20199;-71
2022/01/26 07:00:16;;;;;;;50.20;40.58;;;1.30;95.20;;;;;;5072874;28;20262;-71
2022/01/26 07:02:44;;;;;;;1999.90;365.52;;;1.20;97.50;;;;;;5073179;28;20196;-71
2022/01/26 07:05:13;;;;;;;51.55;42.05;;;1.20;97.40;;;;;;5072915;28;20249;-71
2022/01/26 07:07:40;;;;;;;47.63;40.58;;;1.20;98.40;;;;;;5072888;28;20203;-71
2022/01/26 07:10:08;;;;;;;48.25;42.92;;;1.20;96.30;;;;;;5072497;28;20216;-71
2022/01/26 07:12:35;;;;;;;51.63;42.92;;;1.10;97.20;;;;;;5073008;28;20192;-71
2022/01/26 07:23:16;;;;;;;46.08;41.13;;;1.10;95.50;;;;;;5073013;28;20674;-71
2022/01/26 07:25:43;;;;;;;47.83;42.80;;;1.20;97.90;;;;;;5072772;28;20196;-71
2022/01/26 07:28:10;;;;;;;48.58;42.40;;;1.20;96.10;;;;;;5072621;28;20202;-71
2022/01/26 07:30:37;;;;;;;46.97;41.88;;;1.20;94.60;;;;;;5072410;28;20246;-71
2022/01/26 07:33:07;;;;;;;49.00;41.95;;;1.20;93.00;;;;;;5072675;28;20196;-71
2022/01/26 07:35:34;;;;;;;1999.90;488.08;;;1.00;92.50;;;;;;5072732;28;20200;-71
2022/01/26 07:38:03;;;;;;;49.17;40.95;;;1.10;93.40;;;;;;5072686;28;20651;-71
2022/01/26 07:40:31;;;;;;;46.67;41.80;;;0.90;92.80;;;;;;5072174;28;20265;-71
2022/01/26 07:42:58;;;;;;;47.28;42.35;;;0.70;92.40;;;;;;5072484;28;20287;-71
2022/01/26 07:45:25;;;;;;;48.75;41.15;;;0.80;93.00;;;;;;5072490;28;20565;-71
2022/01/26 07:47:53;;;;;;;51.30;42.92;;;0.80;91.80;;;;;;5072465;28;20299;-71
2022/01/26 07:50:22;;;;;;;44.08;38.75;;;0.80;91.60;;;;;;5072317;28;20262;-71
2022/01/26 07:52:49;;;;;;;50.13;42.42;;;0.80;91.70;;;;;;5072364;28;20239;-71
2022/01/26 07:55:19;;;;;;;46.97;40.88;;;0.70;94.20;;;;;;5072341;28;20234;-71
2022/01/26 07:57:48;;;;;;;46.42;41.38;;;0.70;93.10;;;;;;5072693;28;20618;-71
2022/01/26 08:00:16;;;;;;;47.38;41.97;;;0.80;92.60;;;;;;5072087;28;20227;-71
2022/01/26 08:02:44;;;;;;;46.47;40.35;;;0.80;92.40;;;;;;5072393;28;20198;-71
2022/01/26 08:05:12;;;;;;;48.63;43.33;;;0.80;92.40;;;;;;5072202;28;20231;-71
2022/01/26 08:07:40;;;;;;;48.90;43.67;;;1.00;91.80;;;;;;5072399;28;20208;-71
2022/01/26 08:10:09;;;;;;;47.30;42.45;;;0.80;90.50;;;;;;5071870;28;20212;-72
2022/01/26 08:12:38;;;;;;;73.45;43.95;;;0.70;90.90;;;;;;5072254;28;20683;-72
2022/01/26 08:15:07;;;;;;;46.60;41.63;;;0.60;91.50;;;;;;5072292;28;20206;-72
2022/01/26 08:17:34;;;;;;;1291.35;187.65;;;0.80;92.50;;;;;;5072155;28;20589;-71
2022/01/26 08:20:04;;;;;;;353.90;72.65;;;0.90;93.60;;;;;;5072068;28;20222;-72
2022/01/26 08:22:31;;;;;;;640.72;99.88;;;0.90;96.30;;;;;;5076189;28;20216;-72
2022/01/26 08:24:59;;;;;;;50.20;41.80;;;1.10;95.40;;;;;;5076046;28;20219;-72
2022/01/26 08:27:30;;;;;;;50.88;42.20;;;1.10;99.50;;;;;;5076194;28;20199;-72
2022/01/26 08:30:04;;;;;;;50.47;42.60;;;0.90;93.60;;;;;;5076025;28;20223;-71
2022/01/26 08:32:31;;;;;;;56.72;45.88;;;0.60;93.10;;;;;;5076092;28;20261;-72
2022/01/26 08:34:58;;;;;;;59.47;46.05;;;0.40;93.30;;;;;;5075970;28;20204;-72
2022/01/26 08:37:25;;;;;;;50.53;43.83;;;0.40;94.00;;;;;;5075999;28;20282;-72
2022/01/26 08:39:52;;;;;;;50.92;45.38;;;0.30;93.90;;;;;;5075582;28;20259;-72
2022/01/26 08:42:21;;;;;;;52.80;44.45;;;0.20;94.40;;;;;;5075963;28;20230;-72
2022/01/26 08:44:47;;;;;;;55.20;44.30;;;0.20;94.70;;;;;;5075851;28;20196;-72
2022/01/26 08:47:14;;;;;;;48.55;41.88;;;0.50;94.60;;;;;;5075812;28;20610;-72
2022/01/26 08:49:41;;;;;;;49.03;43.63;;;0.50;93.20;;;;;;5075497;28;20298;-72
2022/01/26 08:52:08;;;;;;;52.65;42.55;;;0.50;93.30;;;;;;5075667;28;20203;-72
2022/01/26 08:54:35;;;;;;;52.92;42.80;;;0.60;93.00;;;;;;5075527;28;20192;-71
2022/01/26 08:57:02;;;;;;;49.95;42.13;;;0.50;93.50;;;;;;5075523;28;20200;-71
2022/01/26 08:59:30;;;;;;;144.25;51.63;;;0.60;93.30;;;;;;5075133;28;20208;-72
2022/01/26 09:01:57;;;;;;;843.22;125.03;;;0.70;98.50;;;;;;5075492;28;20289;-71
2022/01/26 09:04:24;;;;;;;60.55;47.13;;;0.80;98.00;;;;;;5075312;28;20207;-72
2022/01/26 09:06:54;;;;;;;1339.18;219.23;;;0.80;95.90;;;;;;5075097;28;20200;-71
2022/01/26 09:09:22;;;;;;;87.43;47.80;;;0.90;95.60;;;;;;5075135;28;20295;-72
2022/01/26 09:11:51;;;;;;;56.85;43.90;;;0.90;96.90;;;;;;5075170;28;20200;-72
2022/01/26 09:14:21;;;;;;;1020.28;164.70;;;1.00;97.50;;;;;;5075318;28;20661;-72
2022/01/26 09:16:51;;;;;;;543.33;85.88;;;1.10;96.80;;;;;;5075431;28;20203;-72
2022/01/26 09:19:26;;;;;;;60.95;46.50;;;1.30;97.30;;;;;;5074904;28;20207;-72
2022/01/26 09:21:54;;;;;;;62.35;46.08;;;1.50;97.30;;;;;;5075062;28;20211;-72
2022/01/26 09:24:21;;;;;;;54.10;45.80;;;1.30;93.10;;;;;;5075196;28;20198;-72
2022/01/26 09:26:48;;;;;;;59.05;47.65;;;0.90;92.70;;;;;;5075084;28;20206;-72
2022/01/26 09:29:15;;;;;;;54.05;44.97;;;0.70;93.90;;;;;;5074706;28;20192;-72
2022/01/26 09:31:44;;;;;;;59.45;43.30;;;0.70;94.30;;;;;;5074680;28;20196;-72
2022/01/26 09:34:12;;;;;;;49.92;40.65;;;0.70;95.00;;;;;;5074854;28;20235;-72
2022/01/26 09:36:39;;;;;;;53.28;43.17;;;0.70;96.90;;;;;;5074977;28;20232;-72
2022/01/26 09:39:06;;;;;;;54.28;42.20;;;0.80;94.30;;;;;;5074854;28;20287;-73
2022/01/26 09:41:34;;;;;;;57.25;45.15;;;0.80;94.00;;;;;;5074671;28;20323;-72
2022/01/26 09:44:04;;;;;;;56.08;42.42;;;0.90;94.30;;;;;;5074800;28;20203;-73
2022/01/26 09:46:31;;;;;;;52.40;44.83;;;1.20;93.30;;;;;;5074964;28;20673;-72
2022/01/26 09:48:58;;;;;;;50.47;41.55;;;1.20;92.40;;;;;;5074824;28;20215;-72
2022/01/26 09:51:26;;;;;;;47.47;39.30;;;1.30;91.40;;;;;;5074761;28;20211;-72
2022/01/26 09:54:01;;;;;;;1311.65;180.25;;;1.50;91.40;;;;;;5074651;28;20251;-72
2022/01/26 09:56:28;;;;;;;51.35;41.67;;;1.50;91.80;;;;;;5074487;28;20199;-72
2022/01/26 09:58:55;;;;;;;295.20;67.38;;;1.60;92.10;;;;;;5074323;28;20740;-72
2022/01/26 10:01:22;;;;;;;439.73;83.40;;;1.70;92.40;;;;;;5074252;28;20223;-72
2022/01/26 10:03:51;;;;;;;53.30;44.85;;;1.80;96.10;;;;;;5074409;28;20572;-72
2022/01/26 10:06:25;;;;;;;54.00;41.75;;;2.10;94.30;;;;;;5074081;28;20218;-72
2022/01/26 10:09:03;;;;;;;267.60;61.25;;;2.30;92.30;;;;;;5074306;28;20289;-72
2022/01/26 10:20:03;;;;;;;46.47;41.38;;;2.80;88.70;;;;;;5073758;28;20215;-72
2022/01/26 10:22:32;;;;;;;46.72;41.65;;;2.80;87.90;;;;;;5074037;28;20731;-72
2022/01/26 10:25:07;;;;;;;44.10;39.17;;;2.70;86.50;;;;;;5074086;28;20202;-72
2022/01/26 10:27:39;;;;;;;42.45;38.35;;;2.60;89.40;;;;;;5073826;28;20226;-72
2022/01/26 10:30:08;;;;;;;43.92;39.33;;;2.70;87.60;;;;;;5073666;28;20222;-72
2022/01/26 10:32:35;;;;;;;44.85;37.33;;;2.80;87.10;;;;;;5073836;28;20199;-73
2022/01/26 10:35:02;;;;;;;44.60;39.90;;;2.90;87.70;;;;;;5073791;28;20192;-72
2022/01/26 10:37:29;;;;;;;42.83;38.35;;;3.00;87.50;;;;;;5073692;28;20200;-72
2022/01/26 10:40:12;;;;;;;41.95;37.95;;;3.20;85.80;;;;;;5073279;28;20219;-72
2022/01/26 10:42:39;;;;;;;41.85;37.55;;;3.40;84.80;;;;;;5073199;28;20697;-72
2022/01/26 10:45:12;;;;;;;39.13;35.00;;;3.30;83.30;;;;;;5073400;28;20199;-72
2022/01/26 10:47:43;;;;;;;42.30;37.95;;;3.20;83.00;;;;;;5073511;28;20299;-72
2022/01/26 10:50:42;;;;;;;39.10;35.15;;;3.30;84.00;;;;;;5073209;28;20697;-72
2022/01/26 10:53:11;;;;;;;43.60;37.83;;;3.30;86.40;;;;;;5073281;28;20238;-72
2022/01/26 10:55:41;;;;;;;42.90;38.33;;;3.40;84.70;;;;;;5073309;28;20211;-72
2022/01/26 10:58:08;;;;;;;41.53;37.13;;;3.30;87.00;;;;;;5073130;28;20232;-73
2022/01/26 11:00:37;;;;;;;41.88;37.58;;;3.40;84.80;;;;;;5073007;28;20688;-72
2022/01/26 11:03:05;;;;;;;43.92;39.42;;;3.50;82.20;;;;;;5073033;28;20220;-72
2022/01/26 11:05:32;;;;;;;41.40;37.38;;;3.30;80.20;;;;;;5072915;28;20200;-72
2022/01/26 11:08:01;;;;;;;42.20;37.90;;;3.10;80.90;;;;;;5073083;28;20200;-72
2022/01/26 11:10:36;;;;;;;42.88;38.50;;;2.90;81.40;;;;;;5072730;28;20222;-72
2022/01/26 11:13:05;;;;;;;43.40;39.10;;;2.90;81.70;;;;;;5073111;28;20603;-72
2022/01/26 11:15:33;;;;;;;43.53;39.17;;;2.80;82.10;;;;;;5072890;28;20282;-72
2022/01/26 11:18:10;;;;;;;42.97;38.55;;;2.80;81.80;;;;;;5072848;28;20228;-72
2022/01/26 11:20:48;;;;;;;44.80;40.10;;;2.50;83.00;;;;;;5072715;28;20255;-72
2022/01/26 11:23:18;;;;;;;44.08;39.47;;;2.50;86.80;;;;;;5072935;28;20558;-73
2022/01/26 11:25:47;;;;;;;45.75;40.63;;;2.60;85.30;;;;;;5072876;28;20290;-72
2022/01/26 11:28:18;;;;;;;46.15;40.15;;;2.70;83.70;;;;;;5072706;28;20298;-72
2022/01/26 11:30:45;;;;;;;50.78;42.67;;;2.50;84.40;;;;;;5072619;28;20231;-72
2022/01/26 11:33:18;;;;;;;47.88;42.53;;;2.50;84.60;;;;;;5072785;28;20726;-72
2022/01/26 11:35:48;;;;;;;53.95;44.28;;;2.30;85.70;;;;;;5072750;28;20286;-72
2022/01/26 11:46:53;;;;;;;47.88;42.55;;;2.10;88.00;;;;;;5038863;28;20191;-72
2022/01/26 11:49:25;;;;;;;49.42;42.60;;;2.20;88.60;;;;;;5072215;28;20192;-72
2022/01/26 11:51:53;;;;;;;52.45;42.92;;;2.20;87.50;;;;;;5072631;28;20291;-72
2022/01/26 11:54:22;;;;;;;56.33;43.53;;;2.10;87.50;;;;;;5072432;28;20196;-72
2022/01/26 11:57:04;;;;;;;55.30;43.10;;;2.00;88.20;;;;;;5072396;28;20196;-72
2022/01/26 11:59:35;;;;;;;53.33;43.20;;;2.10;88.40;;;;;;5072036;28;20215;-72
2022/01/26 12:02:08;;;;;;;57.55;44.95;;;1.90;89.40;;;;;;5072432;28;20216;-72
2022/01/26 12:04:37;;;;;;;56.20;44.50;;;1.90;89.50;;;;;;5072400;28;20288;-71
2022/01/26 12:07:10;;;;;;;61.20;45.40;;;1.90;90.20;;;;;;5072148;28;20287;-72
2022/01/26 12:09:41;;;;;;;56.85;44.13;;;1.80;90.40;;;;;;5072051;28;20203;-72
2022/01/26 12:12:09;;;;;;;52.45;42.72;;;1.90;90.40;;;;;;5072346;28;20562;-72
2022/01/26 12:14:37;;;;;;;52.30;42.58;;;1.70;90.40;;;;;;5072253;28;20648;-72
2022/01/26 12:17:11;;;;;;;55.03;42.55;;;1.60;91.60;;;;;;5072237;28;20206;-72
2022/01/26 12:19:49;;;;;;;54.50;42.92;;;1.60;91.90;;;;;;5072350;28;20572;-72
2022/01/26 12:36:22;;;;;;;58.13;44.05;;;1.60;92.90;;;;;;5069796;28;20725;-72
2022/01/26 12:38:59;;;;;;;55.90;41.85;;;1.60;91.80;;;;;;5071941;28;20269;-72
2022/01/26 12:41:32;;;;;;;46.50;39.72;;;1.50;91.50;;;;;;5071967;28;20227;-72
2022/01/26 12:44:01;;;;;;;1392.57;198.60;;;1.20;91.90;;;;;;5072018;28;20706;-72
2022/01/26 12:46:31;;;;;;;52.47;38.92;;;1.30;93.10;;;;;;5071852;28;20196;-72
2022/01/26 12:49:00;;;;;;;45.47;39.28;;;1.30;92.90;;;;;;5071936;28;20673;-72
2022/01/26 12:51:28;;;;;;;51.53;40.65;;;1.30;93.20;;;;;;5071819;28;20223;-72
2022/01/26 12:53:56;;;;;;;51.28;41.78;;;1.40;92.20;;;;;;5071867;28;20788;-72
2022/01/26 12:56:27;;;;;;;43.42;38.45;;;1.30;92.50;;;;;;5071823;28;20658;-72
2022/01/26 12:59:00;;;;;;;48.10;40.25;;;1.40;92.90;;;;;;5071744;28;20306;-72
2022/01/26 13:01:29;;;;;;;54.45;41.78;;;1.60;92.60;;;;;;5071827;28;20220;-72
2022/01/26 13:03:58;;;;;;;71.15;42.50;;;1.60;91.50;;;;;;5071541;28;20216;-72
2022/01/26 13:06:27;;;;;;;51.67;40.72;;;1.40;92.10;;;;;;5072101;28;20208;-72
2022/01/26 13:08:56;;;;;;;50.70;41.03;;;1.40;93.70;;;;;;5075323;28;20244;-72
2022/01/26 13:11:25;;;;;;;52.58;41.28;;;1.60;93.30;;;;;;5075116;28;20216;-72
2022/01/26 13:14:11;;;;;;;48.38;40.30;;;1.70;92.20;;;;;;5075283;28;20238;-72
2022/01/26 13:16:44;;;;;;;47.67;41.90;;;1.70;91.30;;;;;;5075191;28;20535;-72
2022/01/26 13:19:35;;;;;;;44.75;38.45;;;1.70;91.10;;;;;;5075008;28;20204;-72
2022/01/26 13:24:59;;;;;;;44.83;39.33;;;1.50;91.00;;;;;;5065908;28;20196;-72
2022/01/26 13:27:37;;;;;;;52.22;41.38;;;1.20;91.70;;;;;;5075123;28;20231;-72
2022/01/26 13:30:21;;;;;;;44.63;39.60;;;1.30;92.70;;;;;;5074616;28;20237;-72
2022/01/26 13:36:09;;;;;;;43.10;38.50;;;1.60;91.10;;;;;;5049936;28;20207;-72
2022/01/26 13:38:55;;;;;;;47.28;40.45;;;1.50;90.50;;;;;;5074747;28;20196;-72
2022/01/26 13:41:34;;;;;;;44.92;40.08;;;1.40;90.50;;;;;;5074526;28;20227;-72
2022/01/26 13:49:41;;;;;;;50.67;40.67;;;1.20;92.20;;;;;;5071672;28;20195;-72
2022/01/26 14:00:54;;;;;;;44.22;39.13;;;0.90;93.70;;;;;;5063373;28;20222;-72
2022/01/26 14:03:24;;;;;;;46.13;39.80;;;0.80;94.80;;;;;;5074586;28;20310;-72
2022/01/26 14:05:52;;;;;;;43.13;38.50;;;1.10;94.40;;;;;;5074149;28;20192;-72
2022/01/26 14:08:19;;;;;;;46.20;39.70;;;1.20;93.80;;;;;;5074292;28;20338;-72
2022/01/26 14:10:48;;;;;;;46.00;40.65;;;1.00;94.00;;;;;;5073817;28;20216;-72
2022/01/26 14:13:19;;;;;;;48.40;41.60;;;0.90;94.30;;;;;;5074214;28;20188;-72
2022/01/26 14:15:50;;;;;;;43.03;38.03;;;0.80;95.00;;;;;;5074202;28;20542;-72
2022/01/26 14:21:31;;;;;;;48.20;41.25;;;0.70;95.40;;;;;;5031744;28;20270;-72
2022/01/26 14:26:42;;;;;;;45.88;39.78;;;0.70;95.30;;;;;;5055838;28;20187;-72
2022/01/26 14:29:18;;;;;;;39.22;33.80;;;0.70;95.30;;;;;;5073624;28;20739;-72
2022/01/26 14:35:07;;;;;;;61.20;40.35;;;0.70;95.20;;;;;;5062984;28;20195;-72
2022/01/26 15:19:30;;;;;;;48.92;39.75;;;0.30;97.60;;;;;;5072907;28;20190;-72
2022/01/26 15:30:18;;;;;;;44.67;36.15;;;0.50;95.20;;;;;;5072126;28;20322;-71
2022/01/26 15:35:51;;;;;;;48.30;38.90;;;0.30;96.30;;;;;;5072774;28;20210;-72
2022/01/26 15:41:16;;;;;;;41.83;35.53;;;0.40;96.60;;;;;;5072484;28;20234;-72
2022/01/26 15:44:06;;;;;;;41.75;35.60;;;0.50;96.10;;;;;;5072639;28;20238;-72
2022/01/26 15:52:04;;;;;;;41.20;36.90;;;0.40;95.50;;;;;;5072671;28;20186;-72
2022/01/26 15:57:48;;;;;;;44.17;39.47;;;0.70;96.20;;;;;;5072401;28;20190;-72